Time;durP1;ratioP1;P1;durP2;ratioP2;P2;SDS_P1;SDS_P2;PMS_P1;PMS_P2;Temp;Humidity;BMP_temperature;BMP_pressure;BME280_temperature;BME280_humidity;BME280_pressure;Samples;Min_cycle;Max_cycle;Signal;HPM_P1;HPM_P2
2021/03/31 00:00:27;;;;;;;19.27;12.20;;;15.00;99.90;;;;;;4996643;28;20762;-54
2021/03/31 00:02:58;;;;;;;18.73;13.10;;;14.90;99.90;;;;;;4996648;28;20882;-51
2021/03/31 00:05:27;;;;;;;22.53;14.93;;;14.90;99.90;;;;;;4996425;28;20854;-54
2021/03/31 00:07:56;;;;;;;19.27;12.10;;;14.90;99.90;;;;;;4998983;28;20921;-55
2021/03/31 00:10:28;;;;;;;20.53;12.70;;;14.90;99.90;;;;;;4999808;28;20729;-53
2021/03/31 00:12:56;;;;;;;22.37;13.17;;;14.90;99.90;;;;;;4999457;28;20838;-49
2021/03/31 00:15:26;;;;;;;20.37;13.57;;;14.90;99.90;;;;;;4998794;28;20453;-57
2021/03/31 00:17:54;;;;;;;21.00;13.80;;;14.90;99.90;;;;;;4999588;28;20981;-52
2021/03/31 00:20:23;;;;;;;21.43;13.30;;;14.80;99.90;;;;;;4999725;28;21057;-47
2021/03/31 00:22:51;;;;;;;18.37;12.93;;;14.90;99.90;;;;;;4999843;28;20939;-48
2021/03/31 00:25:20;;;;;;;23.07;13.10;;;14.80;99.90;;;;;;4999814;28;20804;-46
2021/03/31 00:27:48;;;;;;;23.20;11.70;;;14.80;99.90;;;;;;4999963;28;20993;-49
2021/03/31 00:30:18;;;;;;;20.27;11.30;;;14.80;99.90;;;;;;5000663;28;20826;-58
2021/03/31 00:32:48;;;;;;;18.63;12.43;;;14.70;99.90;;;;;;4999193;28;20454;-52
2021/03/31 00:35:16;;;;;;;23.13;13.57;;;14.70;99.90;;;;;;4999310;28;20809;-55
2021/03/31 00:37:44;;;;;;;20.33;13.37;;;14.70;99.90;;;;;;4999097;28;20933;-51
2021/03/31 00:40:15;;;;;;;24.00;13.23;;;14.60;99.90;;;;;;4999799;28;20761;-50
2021/03/31 00:42:44;;;;;;;19.33;14.17;;;14.60;99.90;;;;;;4999643;28;20462;-52
2021/03/31 00:45:15;;;;;;;17.07;13.30;;;14.60;99.90;;;;;;4999530;28;20810;-53
2021/03/31 00:47:43;;;;;;;18.53;13.23;;;14.60;99.90;;;;;;5000274;28;20500;-52
2021/03/31 00:50:15;;;;;;;19.03;12.17;;;14.60;99.90;;;;;;4999709;28;20473;-50
2021/03/31 00:52:44;;;;;;;17.63;12.00;;;14.50;99.90;;;;;;4999259;28;21063;-50
2021/03/31 00:55:14;;;;;;;24.30;15.53;;;14.50;99.90;;;;;;4999788;28;20838;-50
2021/03/31 00:57:43;;;;;;;18.60;13.17;;;14.50;99.90;;;;;;4999384;28;20854;-52
2021/03/31 01:00:13;;;;;;;23.17;12.73;;;14.40;99.90;;;;;;5000066;28;20807;-48
2021/03/31 01:02:42;;;;;;;16.70;11.60;;;14.30;99.90;;;;;;5000809;28;20775;-46
2021/03/31 01:05:13;;;;;;;22.90;13.53;;;14.30;99.90;;;;;;4999645;28;20811;-47
2021/03/31 01:07:42;;;;;;;19.10;12.73;;;14.20;99.90;;;;;;4999125;28;20450;-48
2021/03/31 01:10:12;;;;;;;19.27;13.13;;;14.20;99.90;;;;;;4999218;28;21039;-49
2021/03/31 01:12:58;;;;;;;19.50;14.40;;;14.10;99.90;;;;;;4998614;28;20787;-50
2021/03/31 01:15:33;;;;;;;18.80;12.20;;;14.10;99.90;;;;;;4998462;28;20848;-49
2021/03/31 01:18:07;;;;;;;19.07;13.70;;;14.10;99.90;;;;;;4999116;28;20776;-52
2021/03/31 01:21:05;;;;;;;18.07;12.63;;;14.10;99.90;;;;;;4999378;28;20829;-55
2021/03/31 01:23:53;;;;;;;16.53;12.97;;;14.00;99.90;;;;;;4999816;28;20800;-48
2021/03/31 01:26:30;;;;;;;15.40;12.00;;;14.00;99.90;;;;;;5000245;28;20486;-49
2021/03/31 01:29:23;;;;;;;17.50;12.67;;;14.00;99.90;;;;;;5000250;28;20787;-46
2021/03/31 01:32:04;;;;;;;30.60;13.20;;;14.00;99.90;;;;;;4999698;28;20787;-47
2021/03/31 01:34:44;;;;;;;23.43;11.90;;;14.00;99.90;;;;;;4998742;28;20458;-54
2021/03/31 01:37:25;;;;;;;17.80;13.00;;;13.90;99.90;;;;;;4999310;28;20746;-46
2021/03/31 01:39:56;;;;;;;22.37;11.87;;;13.90;99.90;;;;;;4999465;28;20464;-47
2021/03/31 01:42:27;;;;;;;18.33;11.83;;;13.90;99.90;;;;;;4999416;28;20765;-47
2021/03/31 01:45:01;;;;;;;22.00;12.80;;;13.90;99.90;;;;;;4999397;28;20806;-45
2021/03/31 01:47:33;;;;;;;19.53;13.80;;;13.90;99.90;;;;;;4999497;28;20458;-50
2021/03/31 01:50:07;;;;;;;20.07;13.47;;;13.90;99.90;;;;;;4998839;28;20876;-51
2021/03/31 01:52:38;;;;;;;19.23;13.77;;;13.90;99.90;;;;;;4998211;28;20458;-51
2021/03/31 01:55:08;;;;;;;19.50;12.33;;;13.90;99.90;;;;;;4998849;28;20752;-49
2021/03/31 01:57:38;;;;;;;18.03;11.77;;;13.90;99.90;;;;;;4998121;28;20993;-49
2021/03/31 02:00:08;;;;;;;15.70;12.20;;;14.00;99.90;;;;;;4999072;28;20551;-47
2021/03/31 02:02:37;;;;;;;25.30;12.90;;;13.90;99.90;;;;;;4999215;28;20795;-51
2021/03/31 02:05:09;;;;;;;16.57;12.13;;;13.80;99.90;;;;;;4998743;28;20886;-49
2021/03/31 02:07:39;;;;;;;16.77;12.30;;;13.90;99.90;;;;;;4998221;28;20815;-48
2021/03/31 02:10:11;;;;;;;19.20;11.73;;;13.90;99.90;;;;;;4998083;28;20870;-51
2021/03/31 02:12:41;;;;;;;17.27;13.00;;;13.80;99.90;;;;;;4998562;28;20553;-48
2021/03/31 02:15:14;;;;;;;18.27;12.60;;;13.80;99.90;;;;;;4998362;28;20794;-53
2021/03/31 02:17:43;;;;;;;18.83;11.90;;;13.80;99.90;;;;;;4998892;28;20750;-49
2021/03/31 02:20:15;;;;;;;18.17;12.40;;;13.70;99.90;;;;;;4999048;28;20779;-51
2021/03/31 02:22:44;;;;;;;16.70;12.03;;;13.70;99.90;;;;;;4997921;28;20787;-46
2021/03/31 02:25:14;;;;;;;16.47;12.00;;;13.60;99.90;;;;;;4997754;28;21018;-53
2021/03/31 02:27:43;;;;;;;14.83;11.83;;;13.60;99.90;;;;;;4997894;28;20842;-51
2021/03/31 02:30:13;;;;;;;20.90;13.40;;;13.60;99.90;;;;;;4997533;28;20807;-50
2021/03/31 02:32:45;;;;;;;25.37;12.50;;;13.50;99.90;;;;;;4998078;28;20776;-48
2021/03/31 02:35:17;;;;;;;18.63;12.27;;;13.50;99.90;;;;;;4998136;28;20450;-50
2021/03/31 02:37:47;;;;;;;23.23;12.70;;;13.50;99.90;;;;;;4998082;28;20826;-48
2021/03/31 02:40:17;;;;;;;16.47;11.17;;;13.40;99.90;;;;;;4998899;28;20806;-50
2021/03/31 02:42:48;;;;;;;19.03;11.10;;;13.40;99.90;;;;;;4998298;28;20791;-46
2021/03/31 02:45:19;;;;;;;24.03;12.53;;;13.40;99.90;;;;;;4999060;28;20849;-53
2021/03/31 02:47:50;;;;;;;19.20;12.70;;;13.40;99.90;;;;;;4998830;28;20795;-48
2021/03/31 02:50:21;;;;;;;20.83;12.77;;;13.40;99.90;;;;;;4998567;28;20470;-52
2021/03/31 02:52:52;;;;;;;19.97;13.83;;;13.30;99.90;;;;;;4998702;28;20468;-54
2021/03/31 02:55:23;;;;;;;20.50;12.37;;;13.30;99.90;;;;;;4998123;28;20840;-53
2021/03/31 02:57:53;;;;;;;22.43;12.20;;;13.20;99.90;;;;;;4997413;28;20815;-51
2021/03/31 03:00:23;;;;;;;22.43;12.30;;;13.20;99.90;;;;;;4997484;28;20941;-53
2021/03/31 03:02:52;;;;;;;25.03;12.87;;;13.10;99.90;;;;;;4997451;28;20824;-47
2021/03/31 03:05:23;;;;;;;22.03;12.50;;;13.10;99.90;;;;;;4997777;28;20810;-47
2021/03/31 03:07:52;;;;;;;19.13;13.70;;;13.00;99.90;;;;;;4998180;28;20846;-52
2021/03/31 03:10:21;;;;;;;19.33;12.70;;;13.00;99.90;;;;;;4998415;28;20915;-51
2021/03/31 03:12:52;;;;;;;18.07;12.90;;;13.00;99.90;;;;;;4998944;28;20802;-46
2021/03/31 03:15:21;;;;;;;16.63;12.17;;;12.90;99.90;;;;;;4998155;28;20765;-52
2021/03/31 03:17:50;;;;;;;22.50;13.93;;;12.90;99.90;;;;;;4997802;28;20800;-46
2021/03/31 03:20:19;;;;;;;22.20;13.00;;;12.90;99.90;;;;;;4999163;28;20995;-46
2021/03/31 03:22:51;;;;;;;18.70;12.83;;;12.90;99.90;;;;;;4998205;28;20481;-50
2021/03/31 03:25:21;;;;;;;19.60;11.90;;;12.90;99.90;;;;;;4997244;28;20842;-54
2021/03/31 03:27:50;;;;;;;20.17;13.00;;;12.90;99.90;;;;;;4997196;28;20460;-53
2021/03/31 03:30:21;;;;;;;18.47;12.73;;;12.90;99.90;;;;;;4997409;28;20800;-53
2021/03/31 03:32:51;;;;;;;18.90;11.57;;;12.90;99.90;;;;;;4997376;28;20854;-50
2021/03/31 03:35:23;;;;;;;20.70;13.47;;;12.80;99.90;;;;;;4997727;28;20815;-52
2021/03/31 03:37:54;;;;;;;25.63;13.20;;;12.80;99.90;;;;;;4998764;28;20756;-52
2021/03/31 03:40:25;;;;;;;15.00;10.97;;;12.80;99.90;;;;;;4999033;28;20756;-51
2021/03/31 03:42:54;;;;;;;23.07;12.20;;;12.70;99.90;;;;;;5001486;28;20534;-47
2021/03/31 03:45:24;;;;;;;22.90;15.50;;;12.70;99.90;;;;;;5000732;28;20535;-50
2021/03/31 03:47:53;;;;;;;22.00;14.60;;;12.70;99.90;;;;;;4995190;28;20501;-52
2021/03/31 03:50:20;;;;;;;22.43;14.37;;;12.70;99.90;;;;;;4999974;28;20851;-54
2021/03/31 03:52:52;;;;;;;22.37;12.60;;;12.60;99.90;;;;;;5000672;28;20977;-50
2021/03/31 03:55:22;;;;;;;20.60;14.00;;;12.60;99.90;;;;;;5000831;28;20903;-52
2021/03/31 03:57:51;;;;;;;18.47;13.73;;;12.70;99.90;;;;;;5000974;28;20453;-48
2021/03/31 04:00:21;;;;;;;23.80;14.17;;;12.70;99.90;;;;;;5001198;28;20775;-52
2021/03/31 04:02:52;;;;;;;20.80;13.50;;;12.70;99.90;;;;;;5000643;28;21021;-49
2021/03/31 04:05:20;;;;;;;23.43;14.57;;;12.60;99.90;;;;;;5000766;28;20573;-51
2021/03/31 04:07:48;;;;;;;21.23;13.77;;;12.60;99.90;;;;;;5000680;28;20446;-51
2021/03/31 04:10:18;;;;;;;18.70;13.57;;;12.60;99.90;;;;;;5001397;28;20779;-48
2021/03/31 04:12:48;;;;;;;27.87;14.70;;;12.50;99.90;;;;;;4999622;28;20493;-51
2021/03/31 04:15:18;;;;;;;26.00;15.03;;;12.50;99.90;;;;;;5000979;28;20771;-52
2021/03/31 04:17:51;;;;;;;27.80;15.53;;;12.40;99.90;;;;;;5001029;28;20787;-49
2021/03/31 04:20:24;;;;;;;23.30;14.70;;;12.40;99.90;;;;;;5000404;28;20806;-47
2021/03/31 04:22:53;;;;;;;28.87;14.10;;;12.40;99.90;;;;;;4999716;28;20840;-47
2021/03/31 04:25:25;;;;;;;25.67;15.90;;;12.40;99.90;;;;;;4999398;28;20803;-52
2021/03/31 04:27:57;;;;;;;25.37;15.87;;;12.40;99.90;;;;;;4999114;28;20497;-51
2021/03/31 04:30:26;;;;;;;26.13;16.30;;;12.50;99.90;;;;;;4998694;28;20824;-49
2021/03/31 04:32:55;;;;;;;24.17;16.60;;;12.50;99.90;;;;;;4998396;28;20859;-49
2021/03/31 04:35:24;;;;;;;30.80;17.97;;;12.50;99.90;;;;;;4998921;28;20878;-47
2021/03/31 04:37:52;;;;;;;25.43;15.93;;;12.50;99.90;;;;;;4998673;28;20854;-49
2021/03/31 04:40:22;;;;;;;25.40;15.87;;;12.40;99.90;;;;;;4999495;28;20910;-48
2021/03/31 04:42:50;;;;;;;22.17;15.87;;;12.40;99.90;;;;;;4996481;28;20450;-52
2021/03/31 04:45:20;;;;;;;30.00;14.60;;;12.40;99.90;;;;;;4980920;28;20998;-52
2021/03/31 04:47:48;;;;;;;28.10;16.23;;;12.30;99.90;;;;;;4998386;28;20839;-53
2021/03/31 04:50:17;;;;;;;24.97;16.10;;;12.30;99.90;;;;;;4998112;28;20464;-50
2021/03/31 04:52:44;;;;;;;22.13;15.20;;;12.30;99.90;;;;;;4996980;28;20797;-50
2021/03/31 04:55:13;;;;;;;28.20;16.40;;;12.30;99.90;;;;;;4997416;28;20462;-50
2021/03/31 04:57:41;;;;;;;28.10;17.20;;;12.30;99.90;;;;;;4997294;28;20802;-53
2021/03/31 05:00:10;;;;;;;26.03;17.27;;;12.40;99.90;;;;;;4997924;28;20847;-52
2021/03/31 05:02:40;;;;;;;21.80;15.20;;;12.50;99.90;;;;;;4998683;28;20986;-53
2021/03/31 05:05:09;;;;;;;24.77;15.57;;;12.40;99.90;;;;;;4998389;28;20822;-50
2021/03/31 05:07:38;;;;;;;25.33;15.30;;;12.40;99.90;;;;;;4998937;28;20900;-54
2021/03/31 05:10:07;;;;;;;24.83;15.20;;;12.40;99.90;;;;;;4999164;28;20488;-53
2021/03/31 05:12:35;;;;;;;28.43;14.70;;;12.40;99.90;;;;;;4998195;28;20927;-51
2021/03/31 05:15:03;;;;;;;22.93;15.20;;;12.40;99.90;;;;;;4998785;28;20480;-49
2021/03/31 05:17:31;;;;;;;24.83;16.33;;;12.40;99.90;;;;;;4998005;28;20854;-50
2021/03/31 05:20:01;;;;;;;25.23;17.20;;;12.40;99.90;;;;;;4997733;28;20457;-51
2021/03/31 05:22:30;;;;;;;29.00;19.23;;;12.40;99.90;;;;;;4998027;28;20771;-47
2021/03/31 05:24:58;;;;;;;30.30;18.83;;;12.30;99.90;;;;;;4998222;28;20819;-54
2021/03/31 05:27:29;;;;;;;29.47;20.33;;;12.30;99.90;;;;;;4997744;28;20840;-47
2021/03/31 05:29:58;;;;;;;43.73;19.70;;;12.20;99.90;;;;;;4998612;28;20453;-49
2021/03/31 05:32:26;;;;;;;29.20;17.97;;;12.10;99.90;;;;;;4999150;28;20786;-47
2021/03/31 05:34:54;;;;;;;47.70;20.73;;;12.10;99.90;;;;;;4998199;28;20845;-46
2021/03/31 05:37:23;;;;;;;28.83;17.90;;;12.00;99.90;;;;;;4997737;28;20453;-53
2021/03/31 05:39:51;;;;;;;22.83;16.47;;;12.00;99.90;;;;;;4997554;28;20790;-50
2021/03/31 05:42:19;;;;;;;31.10;16.57;;;11.90;99.90;;;;;;4997807;28;20827;-52
2021/03/31 05:44:48;;;;;;;25.97;16.77;;;11.80;99.90;;;;;;4998881;28;20474;-54
2021/03/31 05:47:24;;;;;;;23.20;15.07;;;11.80;99.90;;;;;;4998745;28;20863;-54
2021/03/31 05:49:55;;;;;;;28.40;15.97;;;11.90;99.90;;;;;;4997334;28;20448;-51
2021/03/31 05:52:24;;;;;;;31.77;15.60;;;11.80;99.90;;;;;;4983286;28;20969;-46
2021/03/31 05:54:53;;;;;;;27.60;16.77;;;11.80;99.90;;;;;;4994568;28;20488;-54
2021/03/31 05:57:22;;;;;;;31.00;16.40;;;11.80;99.90;;;;;;4997101;28;21037;-50
2021/03/31 05:59:52;;;;;;;26.13;15.57;;;11.80;99.90;;;;;;4997249;28;20466;-48
2021/03/31 06:02:21;;;;;;;30.37;15.77;;;11.80;99.90;;;;;;5005293;28;20450;-53
2021/03/31 06:04:52;;;;;;;30.70;14.40;;;11.90;99.90;;;;;;4978873;28;20463;-49
2021/03/31 06:07:21;;;;;;;21.73;14.90;;;11.90;99.90;;;;;;4992847;28;21033;-49
2021/03/31 06:10:14;;;;;;;24.33;14.23;;;12.00;99.90;;;;;;4990986;28;20829;-56
2021/03/31 06:12:45;;;;;;;21.27;13.83;;;12.00;99.90;;;;;;5001099;28;20803;-50
2021/03/31 06:15:22;;;;;;;20.70;14.50;;;12.00;99.90;;;;;;4999585;28;20926;-50
2021/03/31 06:17:52;;;;;;;30.87;12.53;;;12.10;99.90;;;;;;4983257;28;20757;-48
2021/03/31 06:20:43;;;;;;;21.27;13.67;;;12.20;99.90;;;;;;4998549;28;20427;-50
2021/03/31 06:23:19;;;;;;;29.40;13.80;;;12.20;99.90;;;;;;4980374;28;20920;-46
2021/03/31 06:25:55;;;;;;;19.57;12.20;;;12.30;99.90;;;;;;4998521;28;20481;-51
2021/03/31 06:28:34;;;;;;;28.20;14.10;;;12.40;99.90;;;;;;4998995;28;20465;-50
2021/03/31 06:31:10;;;;;;;19.83;13.30;;;12.50;99.90;;;;;;4999224;28;20771;-45
2021/03/31 06:33:42;;;;;;;19.27;13.60;;;12.50;99.90;;;;;;5000039;28;20469;-46
2021/03/31 06:36:12;;;;;;;19.13;12.20;;;12.60;99.90;;;;;;4999453;28;20752;-51
2021/03/31 06:38:47;;;;;;;20.27;13.10;;;12.70;99.90;;;;;;4997899;28;20477;-50
2021/03/31 06:41:29;;;;;;;23.50;13.00;;;12.80;99.90;;;;;;4998514;28;20449;-46
2021/03/31 06:44:10;;;;;;;21.53;12.70;;;12.90;99.90;;;;;;4998639;28;20453;-53
2021/03/31 06:46:43;;;;;;;20.27;12.87;;;13.00;99.90;;;;;;4998779;28;20486;-51
2021/03/31 06:49:11;;;;;;;20.90;12.17;;;13.00;99.90;;;;;;4999040;28;20904;-50
2021/03/31 06:51:40;;;;;;;24.17;13.53;;;13.10;99.90;;;;;;4999232;28;20796;-47
2021/03/31 06:54:16;;;;;;;17.70;12.07;;;13.20;99.90;;;;;;4999436;28;20485;-46
2021/03/31 06:56:47;;;;;;;17.77;12.30;;;13.30;99.90;;;;;;4999051;28;20508;-48
2021/03/31 06:59:15;;;;;;;20.60;12.77;;;13.40;99.90;;;;;;5016890;28;20508;-47
2021/03/31 07:01:43;;;;;;;33.03;14.03;;;13.50;99.90;;;;;;5018075;28;20991;-49
2021/03/31 07:04:13;;;;;;;20.83;12.10;;;13.60;99.90;;;;;;5018120;28;20457;-50
2021/03/31 07:06:42;;;;;;;23.30;13.43;;;13.70;99.90;;;;;;5018181;28;20786;-49
2021/03/31 07:09:20;;;;;;;21.43;14.10;;;13.80;99.90;;;;;;5017207;28;20846;-49
2021/03/31 07:11:49;;;;;;;23.30;13.10;;;13.90;99.90;;;;;;5017428;28;20481;-54
2021/03/31 07:14:19;;;;;;;19.87;13.43;;;14.00;99.90;;;;;;5016810;28;20786;-52
2021/03/31 07:16:48;;;;;;;17.90;11.53;;;14.20;99.90;;;;;;5019285;28;20775;-50
2021/03/31 07:19:18;;;;;;;20.70;11.40;;;14.30;99.90;;;;;;5020239;28;20813;-51
2021/03/31 07:21:46;;;;;;;19.27;13.00;;;14.40;99.90;;;;;;5021334;28;20754;-51
2021/03/31 07:24:16;;;;;;;29.63;13.37;;;14.50;99.90;;;;;;5021451;28;20777;-53
2021/03/31 07:26:46;;;;;;;26.53;12.43;;;14.60;99.90;;;;;;5020681;28;20949;-49
2021/03/31 07:29:18;;;;;;;26.50;10.83;;;14.70;99.90;;;;;;5020748;28;20826;-52
2021/03/31 07:31:48;;;;;;;26.50;11.73;;;14.80;99.90;;;;;;5021604;28;20433;-47
2021/03/31 07:34:26;;;;;;;25.10;13.30;;;15.00;99.90;;;;;;5021289;28;20531;-54
2021/03/31 07:36:55;;;;;;;23.10;12.37;;;15.10;99.90;;;;;;5020904;28;20825;-51
2021/03/31 07:39:29;;;;;;;16.07;11.60;;;15.20;99.90;;;;;;5019820;28;20848;-50
2021/03/31 07:41:58;;;;;;;23.67;12.73;;;15.30;99.90;;;;;;5020537;28;20757;-48
2021/03/31 07:44:31;;;;;;;20.90;11.53;;;15.50;99.90;;;;;;5020850;28;20464;-49
2021/03/31 07:47:02;;;;;;;21.20;12.13;;;15.60;99.90;;;;;;5021299;28;20888;-49
2021/03/31 07:49:33;;;;;;;18.53;11.43;;;15.70;99.90;;;;;;5020616;28;20461;-54
2021/03/31 07:52:03;;;;;;;22.30;11.50;;;15.90;99.90;;;;;;5020011;28;20963;-49
2021/03/31 07:54:33;;;;;;;18.07;10.27;;;16.00;99.90;;;;;;5020082;28;20885;-54
2021/03/31 07:57:25;;;;;;;20.63;11.37;;;16.10;99.90;;;;;;5019628;28;20445;-49
2021/03/31 07:59:56;;;;;;;21.83;10.43;;;16.20;99.90;;;;;;5019406;28;20806;-53
2021/03/31 08:02:27;;;;;;;17.60;10.97;;;16.30;99.90;;;;;;5019898;28;20848;-49
2021/03/31 08:05:08;;;;;;;17.40;11.03;;;16.40;99.90;;;;;;5019757;28;20502;-53
2021/03/31 08:07:37;;;;;;;20.03;11.90;;;16.60;99.90;;;;;;5019393;28;20825;-50
2021/03/31 08:10:35;;;;;;;20.10;10.73;;;16.80;99.90;;;;;;5019438;28;20457;-53
2021/03/31 08:13:37;;;;;;;16.13;10.57;;;17.00;99.90;;;;;;5019840;28;20501;-49
2021/03/31 08:16:26;;;;;;;20.73;10.77;;;17.30;99.90;;;;;;5019771;28;20778;-51
2021/03/31 08:18:56;;;;;;;14.40;9.80;;;17.50;99.90;;;;;;5020628;28;20802;-46
2021/03/31 08:21:27;;;;;;;21.50;11.37;;;18.30;99.90;;;;;;5019462;28;20809;-53
2021/03/31 08:23:57;;;;;;;21.90;11.07;;;20.30;99.90;;;;;;5018171;28;20821;-52
2021/03/31 08:26:34;;;;;;;17.63;10.43;;;22.60;99.90;;;;;;5017666;28;20970;-54
2021/03/31 08:29:04;;;;;;;22.43;12.10;;;25.00;92.40;;;;;;5016535;28;20473;-50
2021/03/31 08:31:39;;;;;;;17.83;13.97;;;27.00;73.50;;;;;;5017348;28;20788;-54
2021/03/31 08:34:08;;;;;;;17.87;12.20;;;28.60;62.70;;;;;;5017033;28;20534;-53
2021/03/31 08:36:38;;;;;;;19.97;13.10;;;30.00;56.30;;;;;;5016709;28;20826;-54
2021/03/31 08:39:09;;;;;;;16.63;13.03;;;31.00;51.80;;;;;;5016865;28;20833;-54
2021/03/31 08:41:40;;;;;;;18.53;12.90;;;31.70;48.10;;;;;;5016708;28;20802;-51
2021/03/31 08:44:20;;;;;;;18.27;12.77;;;32.30;46.50;;;;;;5016540;28;20830;-51
2021/03/31 08:46:51;;;;;;;17.77;12.70;;;32.80;44.50;;;;;;5016263;28;20814;-52
2021/03/31 08:49:23;;;;;;;21.30;15.07;;;33.00;42.50;;;;;;5016526;28;20457;-49
2021/03/31 08:51:53;;;;;;;21.27;12.43;;;33.30;41.80;;;;;;5016691;28;20818;-54
2021/03/31 08:54:33;;;;;;;31.70;13.87;;;33.40;40.60;;;;;;5016895;28;20774;-54
2021/03/31 08:57:02;;;;;;;20.30;12.23;;;33.30;39.50;;;;;;5016369;28;20791;-53
2021/03/31 08:59:35;;;;;;;20.90;14.60;;;33.40;38.60;;;;;;5016169;28;20489;-48
2021/03/31 09:02:05;;;;;;;21.87;15.60;;;33.40;37.90;;;;;;5015902;28;20873;-51
2021/03/31 09:04:34;;;;;;;19.87;15.27;;;33.30;37.20;;;;;;5016257;28;20433;-48
2021/03/31 09:07:05;;;;;;;31.53;15.27;;;33.30;36.80;;;;;;5015981;28;20821;-57
2021/03/31 09:09:34;;;;;;;24.33;15.90;;;33.20;36.30;;;;;;5015693;28;20457;-51
2021/03/31 09:12:04;;;;;;;25.37;16.67;;;32.80;36.10;;;;;;5015875;28;20809;-46
2021/03/31 09:14:33;;;;;;;25.13;16.50;;;32.90;36.00;;;;;;5015941;28;20487;-53
2021/03/31 09:17:04;;;;;;;19.70;16.27;;;33.00;35.10;;;;;;5015949;28;20809;-53
2021/03/31 09:19:35;;;;;;;23.47;15.43;;;32.90;35.00;;;;;;5016027;28;20784;-48
2021/03/31 09:22:08;;;;;;;25.43;18.53;;;32.90;34.70;;;;;;5016004;28;20746;-51
2021/03/31 09:24:39;;;;;;;22.67;18.03;;;32.70;35.50;;;;;;5015493;28;20860;-51
2021/03/31 09:27:09;;;;;;;23.80;17.00;;;32.50;35.40;;;;;;5015444;28;20871;-50
2021/03/31 09:29:42;;;;;;;23.67;17.30;;;32.30;35.00;;;;;;5015415;28;20821;-52
2021/03/31 09:32:17;;;;;;;26.70;18.27;;;31.90;35.50;;;;;;5015446;28;20930;-52
2021/03/31 09:34:45;;;;;;;26.20;17.83;;;31.80;35.60;;;;;;5015608;28;20925;-51
2021/03/31 09:37:15;;;;;;;28.63;17.63;;;32.00;34.60;;;;;;5015521;28;20774;-51
2021/03/31 09:39:48;;;;;;;27.23;20.20;;;32.10;34.00;;;;;;5015543;28;20814;-51
2021/03/31 09:42:19;;;;;;;24.10;17.63;;;32.10;33.50;;;;;;5015413;28;20784;-51
2021/03/31 09:44:49;;;;;;;27.40;16.53;;;32.10;33.20;;;;;;5015590;28;20880;-52
2021/03/31 09:47:20;;;;;;;24.43;17.53;;;32.50;33.10;;;;;;5015231;28;20833;-48
2021/03/31 09:49:51;;;;;;;21.53;15.83;;;33.10;31.20;;;;;;5015985;28;20787;-51
2021/03/31 09:52:26;;;;;;;24.67;16.63;;;33.20;31.50;;;;;;5015533;28;20882;-45
2021/03/31 09:54:56;;;;;;;24.03;18.03;;;33.60;31.40;;;;;;5015638;28;20811;-47
2021/03/31 09:57:28;;;;;;;26.03;18.10;;;34.00;30.40;;;;;;5015159;28;20970;-50
2021/03/31 10:00:00;;;;;;;23.27;16.40;;;34.20;30.00;;;;;;5015613;28;20840;-53
2021/03/31 10:02:31;;;;;;;25.53;18.10;;;34.30;30.00;;;;;;5015022;28;21081;-49
2021/03/31 10:05:02;;;;;;;25.40;16.53;;;34.30;30.20;;;;;;5015537;28;20774;-56
2021/03/31 10:07:31;;;;;;;23.87;16.87;;;34.40;28.80;;;;;;5014852;28;21004;-51
2021/03/31 10:09:59;;;;;;;22.87;15.53;;;34.10;28.70;;;;;;5014810;28;20957;-51
2021/03/31 10:12:31;;;;;;;21.13;15.47;;;33.80;29.00;;;;;;5014736;28;20794;-52
2021/03/31 10:15:00;;;;;;;20.00;15.30;;;33.60;29.30;;;;;;5014565;28;20773;-53
2021/03/31 10:17:32;;;;;;;23.13;14.73;;;33.30;29.30;;;;;;5014764;28;20788;-49
2021/03/31 10:20:11;;;;;;;23.30;15.73;;;33.30;29.50;;;;;;5014763;28;20854;-51
2021/03/31 10:22:39;;;;;;;25.47;16.03;;;33.20;29.40;;;;;;5014588;28;20425;-49
2021/03/31 10:25:22;;;;;;;20.23;15.83;;;33.00;29.90;;;;;;5014696;28;20788;-50
2021/03/31 10:27:51;;;;;;;21.73;14.90;;;32.80;30.20;;;;;;5014574;28;20489;-49
2021/03/31 10:30:29;;;;;;;21.37;15.80;;;32.70;30.20;;;;;;5014986;28;20771;-46
2021/03/31 10:32:59;;;;;;;20.43;15.40;;;32.50;30.20;;;;;;5014642;28;20918;-53
2021/03/31 10:35:47;;;;;;;21.93;15.00;;;32.10;30.50;;;;;;5014594;28;20795;-50
2021/03/31 10:38:30;;;;;;;21.83;15.07;;;31.80;31.20;;;;;;5013879;28;20922;-52
2021/03/31 10:41:34;;;;;;;19.13;13.63;;;31.40;31.60;;;;;;5014248;28;20941;-52
2021/03/31 10:47:13;;;;;;;20.20;14.83;;;30.80;32.50;;;;;;5014193;28;20479;-49
2021/03/31 10:49:47;;;;;;;20.07;13.60;;;30.60;32.50;;;;;;5014117;28;20504;-48
2021/03/31 10:52:17;;;;;;;22.47;15.17;;;30.40;32.10;;;;;;5013930;28;20445;-55
2021/03/31 10:54:45;;;;;;;17.53;13.47;;;30.40;32.30;;;;;;5014092;28;20469;-54
2021/03/31 10:57:13;;;;;;;19.60;12.50;;;30.30;32.50;;;;;;5013714;28;20805;-51
2021/03/31 10:59:42;;;;;;;19.20;13.33;;;30.10;32.80;;;;;;5014210;28;20794;-49
2021/03/31 11:02:20;;;;;;;19.13;13.93;;;29.70;32.90;;;;;;5095381;23;20574;-53
2021/03/31 11:04:50;;;;;;;26.50;14.10;;;29.20;33.80;;;;;;4973992;28;20478;-51
2021/03/31 11:07:19;;;;;;;18.83;12.53;;;29.00;34.00;;;;;;4975093;28;20565;-51
2021/03/31 11:09:49;;;;;;;20.70;13.90;;;28.80;34.30;;;;;;4974988;28;21013;-50
2021/03/31 11:12:17;;;;;;;22.00;13.10;;;28.60;34.00;;;;;;4975198;28;20572;-49
2021/03/31 11:14:46;;;;;;;16.97;12.83;;;28.40;34.10;;;;;;4975452;28;20784;-49
2021/03/31 11:17:18;;;;;;;19.50;12.13;;;28.20;33.60;;;;;;4975359;28;20785;-51
2021/03/31 11:19:54;;;;;;;17.80;12.57;;;28.00;34.10;;;;;;4975037;28;20992;-53
2021/03/31 11:27:54;;;;;;;17.50;11.90;;;27.40;34.90;;;;;;4974878;28;20501;-51
2021/03/31 11:30:23;;;;;;;18.20;13.10;;;27.30;35.00;;;;;;4974912;28;20785;-48
2021/03/31 11:32:52;;;;;;;23.20;13.40;;;27.10;35.10;;;;;;4975242;28;20792;-51
2021/03/31 11:35:22;;;;;;;17.50;12.93;;;26.90;36.10;;;;;;4975355;28;20905;-51
2021/03/31 11:37:50;;;;;;;18.40;13.03;;;26.70;35.70;;;;;;4975070;28;20899;-54
2021/03/31 11:40:19;;;;;;;21.30;12.83;;;26.60;36.20;;;;;;4974902;28;20458;-53
2021/03/31 11:42:47;;;;;;;22.40;13.83;;;26.40;36.30;;;;;;4974852;28;20803;-47
2021/03/31 11:45:16;;;;;;;19.83;13.10;;;26.20;37.00;;;;;;4975296;28;20845;-49
2021/03/31 11:47:44;;;;;;;23.60;12.07;;;26.00;37.20;;;;;;4974657;28;20501;-52
2021/03/31 11:50:14;;;;;;;18.20;13.43;;;25.90;37.30;;;;;;4975205;28;20768;-50
2021/03/31 11:52:44;;;;;;;18.40;11.13;;;25.90;37.30;;;;;;4974823;28;20848;-47
2021/03/31 11:55:12;;;;;;;19.40;11.40;;;25.80;36.00;;;;;;4975277;28;20811;-50
2021/03/31 11:57:41;;;;;;;19.07;12.27;;;25.70;36.20;;;;;;4974862;28;20442;-50
2021/03/31 12:00:10;;;;;;;21.07;10.83;;;25.60;36.90;;;;;;4974869;28;20771;-52
2021/03/31 12:02:38;;;;;;;20.50;13.20;;;25.50;37.10;;;;;;4975300;28;20877;-53
2021/03/31 12:05:08;;;;;;;19.03;12.50;;;25.50;37.60;;;;;;4978541;28;20819;-51
2021/03/31 12:07:37;;;;;;;16.17;11.13;;;25.50;37.60;;;;;;4978305;28;20875;-45
2021/03/31 12:10:08;;;;;;;21.60;13.43;;;25.60;37.50;;;;;;4978433;28;20840;-54
2021/03/31 12:12:38;;;;;;;17.43;11.33;;;25.60;37.40;;;;;;4978652;28;20778;-51
2021/03/31 12:15:11;;;;;;;20.63;13.23;;;25.60;37.70;;;;;;4978765;28;20815;-53
2021/03/31 12:17:40;;;;;;;30.13;13.60;;;25.60;38.40;;;;;;4978334;28;20436;-49
2021/03/31 12:20:10;;;;;;;21.90;12.57;;;25.50;38.10;;;;;;4978717;28;20803;-52
2021/03/31 12:22:40;;;;;;;16.50;10.63;;;25.40;38.10;;;;;;4978524;28;20789;-50
2021/03/31 12:25:12;;;;;;;16.80;10.70;;;25.40;37.80;;;;;;4978486;28;20897;-49
2021/03/31 12:27:44;;;;;;;14.20;9.30;;;25.30;37.80;;;;;;4978492;28;20458;-51
2021/03/31 12:30:14;;;;;;;14.50;9.50;;;25.40;37.30;;;;;;4978282;28;20431;-51
2021/03/31 12:32:45;;;;;;;14.57;9.90;;;25.40;36.60;;;;;;4978017;28;20775;-53
2021/03/31 12:35:14;;;;;;;11.90;8.83;;;25.30;37.10;;;;;;4977783;28;20880;-53
2021/03/31 12:37:43;;;;;;;14.30;9.80;;;25.30;37.60;;;;;;4977725;28;20457;-51
2021/03/31 12:40:14;;;;;;;15.00;10.43;;;25.30;37.30;;;;;;4978005;28;20828;-52
2021/03/31 12:42:44;;;;;;;16.50;10.77;;;25.30;37.60;;;;;;4977878;28;20937;-53
2021/03/31 12:45:14;;;;;;;14.27;9.47;;;25.30;37.20;;;;;;4978056;28;20812;-50
2021/03/31 12:47:43;;;;;;;16.10;10.17;;;25.30;36.30;;;;;;4977622;28;20858;-52
2021/03/31 12:50:16;;;;;;;14.17;9.40;;;25.30;36.90;;;;;;4977699;28;20793;-49
2021/03/31 12:52:48;;;;;;;18.23;10.73;;;25.40;37.10;;;;;;4977581;28;20936;-52
2021/03/31 12:55:21;;;;;;;18.53;10.00;;;25.50;36.70;;;;;;4977634;28;20435;-50
2021/03/31 12:57:51;;;;;;;14.20;9.17;;;25.50;36.00;;;;;;4977818;28;20963;-49